Time;durP1;ratioP1;P1;durP2;ratioP2;P2;SDS_P1;SDS_P2;PMS_P1;PMS_P2;Temp;Humidity;BMP_temperature;BMP_pressure;BME280_temperature;BME280_humidity;BME280_pressure;Samples;Min_cycle;Max_cycle;Signal;HPM_P1;HPM_P2
2022/11/14 00:02:32;;;;;;;26.90;18.48;;;;;;;;;;4990163;28;20488;-79
2022/11/14 00:05:19;;;;;;;21.98;18.25;;;;;;;;;;4982585;28;20030;-79
2022/11/14 00:08:03;;;;;;;19.13;17.13;;;;;;;;;;4983206;28;20038;-80
2022/11/14 00:10:51;;;;;;;21.88;19.25;;;;;;;;;;4963838;28;20038;-79
2022/11/14 00:13:36;;;;;;;20.75;18.35;;;;;;;;;;4968764;28;20473;-79
2022/11/14 00:16:22;;;;;;;20.08;18.00;;;;;;;;;;4981336;28;20034;-80
2022/11/14 00:19:09;;;;;;;25.30;18.77;;;;;;;;;;4985317;28;20034;-79
2022/11/14 00:21:56;;;;;;;20.85;17.25;;;;;;;;;;4983462;28;20341;-79
2022/11/14 00:24:43;;;;;;;20.75;16.35;;;;;;;;;;4985171;28;20034;-79
2022/11/14 00:27:29;;;;;;;21.35;18.92;;;;;;;;;;4988590;28;20030;-79
2022/11/14 00:30:16;;;;;;;20.98;17.45;;;;;;;;;;4972784;28;20534;-79
2022/11/14 00:33:01;;;;;;;18.17;16.33;;;;;;;;;;4965652;28;20034;-79
2022/11/14 00:35:52;;;;;;;20.98;16.27;;;;;;;;;;4968941;28;20046;-79
2022/11/14 00:38:37;;;;;;;18.50;15.40;;;;;;;;;;4986900;28;20030;-79
2022/11/14 00:41:26;;;;;;;20.95;14.90;;;;;;;;;;4981992;28;20038;-79
2022/11/14 00:44:13;;;;;;;19.10;16.45;;;;;;;;;;4981361;28;20493;-79
2022/11/14 00:47:00;;;;;;;21.83;17.98;;;;;;;;;;4984069;28;20488;-80
2022/11/14 00:49:44;;;;;;;21.58;18.13;;;;;;;;;;4997462;23;20030;-72
2022/11/14 00:52:31;;;;;;;22.40;16.77;;;;;;;;;;4962996;28;20042;-72
2022/11/14 00:55:15;;;;;;;20.88;16.48;;;;;;;;;;4966589;28;20034;-72
2022/11/14 00:58:00;;;;;;;23.90;20.38;;;;;;;;;;4980571;28;20026;-72
2022/11/14 01:00:44;;;;;;;21.90;19.40;;;;;;;;;;4989859;28;21349;-72
2022/11/14 01:03:31;;;;;;;20.27;18.10;;;;;;;;;;4998510;28;20034;-72
2022/11/14 01:06:16;;;;;;;22.48;16.77;;;;;;;;;;4997244;28;20037;-71
2022/11/14 01:09:00;;;;;;;19.27;16.45;;;;;;;;;;5000163;28;20022;-71
2022/11/14 01:11:44;;;;;;;16.80;13.13;;;;;;;;;;4999836;28;20033;-72
2022/11/14 01:14:29;;;;;;;22.48;15.63;;;;;;;;;;4980586;28;20744;-72
2022/11/14 01:17:13;;;;;;;17.88;15.13;;;;;;;;;;4997783;28;20049;-71
2022/11/14 01:20:00;;;;;;;20.67;15.52;;;;;;;;;;4997481;28;20535;-72
2022/11/14 01:22:46;;;;;;;18.25;14.63;;;;;;;;;;4998295;28;20393;-72
2022/11/14 01:25:34;;;;;;;20.23;16.92;;;;;;;;;;5000892;28;20049;-72
2022/11/14 01:28:19;;;;;;;18.55;14.15;;;;;;;;;;4984047;28;20033;-72
2022/11/14 01:31:17;;;;;;;20.75;16.60;;;;;;;;;;4987552;28;20033;-72
2022/11/14 01:34:03;;;;;;;17.65;14.13;;;;;;;;;;5006820;28;20029;-72
2022/11/14 01:36:48;;;;;;;17.25;13.75;;;;;;;;;;5007903;28;20033;-72
2022/11/14 01:39:35;;;;;;;17.20;15.40;;;;;;;;;;4993576;28;20030;-72
2022/11/14 01:42:19;;;;;;;17.92;14.82;;;;;;;;;;5004072;28;20488;-72
2022/11/14 01:45:22;;;;;;;21.95;15.13;;;;;;;;;;5008262;28;20038;-72
2022/11/14 01:48:16;;;;;;;16.15;13.60;;;;;;;;;;5005238;28;20066;-72
2022/11/14 01:51:03;;;;;;;;;;;;;;;;;;4995213;28;20030;-72
2022/11/14 01:53:52;;;;;;;21.50;14.38;;;;;;;;;;4973992;28;19909;-71
2022/11/14 01:56:38;;;;;;;16.83;14.93;;;;;;;;;;5006121;28;20026;-71
2022/11/14 01:59:35;;;;;;;20.80;15.85;;;;;;;;;;5000632;28;20507;-72
2022/11/14 02:02:23;;;;;;;19.30;16.00;;;;;;;;;;5006962;28;20034;-72
2022/11/14 02:05:09;;;;;;;20.10;15.75;;;;;;;;;;5004466;28;20030;-71
2022/11/14 02:07:53;;;;;;;18.67;15.30;;;;;;;;;;5006694;28;20504;-72
2022/11/14 02:10:40;;;;;;;18.25;14.82;;;;;;;;;;5008437;28;20038;-72
2022/11/14 02:13:25;;;;;;;22.73;16.38;;;;;;;;;;5006450;28;20261;-72
2022/11/14 02:16:11;;;;;;;17.08;12.75;;;;;;;;;;5003166;28;20163;-72
2022/11/14 02:19:01;;;;;;;20.83;16.25;;;;;;;;;;5009925;28;20404;-72
2022/11/14 02:21:46;;;;;;;21.10;14.75;;;;;;;;;;5005308;28;20034;-72
2022/11/14 02:24:32;;;;;;;19.40;15.82;;;;;;;;;;5006244;28;20029;-72
2022/11/14 02:27:19;;;;;;;18.50;14.75;;;;;;;;;;4983335;28;20030;-72
2022/11/14 02:30:09;;;;;;;21.83;16.63;;;;;;;;;;5004527;28;20038;-72
2022/11/14 02:32:53;;;;;;;19.13;17.08;;;;;;;;;;5001499;28;20026;-72
2022/11/14 02:35:38;;;;;;;17.92;15.02;;;;;;;;;;4998737;28;20036;-72
2022/11/14 02:38:24;;;;;;;25.08;18.27;;;;;;;;;;4998820;28;20030;-72
2022/11/14 02:41:08;;;;;;;20.23;15.95;;;;;;;;;;4994991;28;20030;-72
2022/11/14 02:43:55;;;;;;;21.75;16.17;;;;;;;;;;4975998;28;20030;-72
2022/11/14 02:46:40;;;;;;;22.80;16.40;;;;;;;;;;4999141;28;20158;-71
2022/11/14 02:49:27;;;;;;;24.27;16.13;;;;;;;;;;4999066;28;20034;-72
2022/11/14 02:52:12;;;;;;;21.63;16.52;;;;;;;;;;4999733;28;20026;-72
2022/11/14 02:54:56;;;;;;;18.88;15.93;;;;;;;;;;5002696;28;20613;-72
2022/11/14 02:57:40;;;;;;;19.70;16.08;;;;;;;;;;4996270;28;20484;-72
2022/11/14 03:00:25;;;;;;;24.17;17.10;;;;;;;;;;4998616;28;20017;-72
2022/11/14 03:03:09;;;;;;;24.08;17.77;;;;;;;;;;4998005;28;20038;-72
2022/11/14 03:05:57;;;;;;;18.88;16.88;;;;;;;;;;4999935;28;20041;-72
2022/11/14 03:08:43;;;;;;;23.52;16.80;;;;;;;;;;5009555;28;20034;-71
2022/11/14 03:11:28;;;;;;;18.38;15.18;;;;;;;;;;5002496;28;20399;-72
2022/11/14 03:14:12;;;;;;;19.45;15.15;;;;;;;;;;5001736;28;20029;-72
2022/11/14 03:16:57;;;;;;;18.75;16.02;;;;;;;;;;4997266;28;20130;-72
2022/11/14 03:19:41;;;;;;;23.05;20.67;;;;;;;;;;4996438;28;20038;-72
2022/11/14 03:22:25;;;;;;;22.27;17.08;;;;;;;;;;4997511;28;20034;-72
2022/11/14 03:25:12;;;;;;;17.13;15.40;;;;;;;;;;5001875;28;20030;-72
2022/11/14 03:27:57;;;;;;;19.38;15.25;;;;;;;;;;5004173;28;20037;-72
2022/11/14 03:30:41;;;;;;;21.05;14.82;;;;;;;;;;5005377;28;20041;-72
2022/11/14 03:33:25;;;;;;;20.73;15.73;;;;;;;;;;5004041;28;20038;-72
2022/11/14 03:36:12;;;;;;;22.58;19.33;;;;;;;;;;5003681;28;20040;-72
2022/11/14 03:38:58;;;;;;;19.70;17.67;;;;;;;;;;5007161;28;20025;-72
2022/11/14 03:41:43;;;;;;;20.88;16.58;;;;;;;;;;4992561;28;20026;-72
2022/11/14 03:44:30;;;;;;;21.27;17.70;;;;;;;;;;5011688;28;20034;-72
2022/11/14 03:47:14;;;;;;;20.13;16.25;;;;;;;;;;5007644;28;20391;-71
2022/11/14 03:49:58;;;;;;;23.17;17.80;;;;;;;;;;5002166;28;20026;-72
2022/11/14 03:52:45;;;;;;;20.05;16.40;;;;;;;;;;5001780;28;20511;-72
2022/11/14 03:55:35;;;;;;;21.10;16.75;;;;;;;;;;5001377;28;20025;-72
2022/11/14 03:58:19;;;;;;;22.92;15.65;;;;;;;;;;5002079;28;20030;-72
2022/11/14 04:01:05;;;;;;;22.60;17.00;;;;;;;;;;5004118;28;20027;-71
2022/11/14 04:03:53;;;;;;;19.42;17.45;;;;;;;;;;4984173;28;20492;-72
2022/11/14 04:06:43;;;;;;;19.83;14.75;;;;;;;;;;5001449;28;20431;-72
2022/11/14 04:09:28;;;;;;;16.40;12.32;;;;;;;;;;4989914;28;20033;-72
2022/11/14 04:12:12;;;;;;;24.38;18.10;;;;;;;;;;5000412;28;20041;-72
2022/11/14 04:14:59;;;;;;;22.08;16.73;;;;;;;;;;5004324;28;20018;-72
2022/11/14 04:17:46;;;;;;;20.20;14.88;;;;;;;;;;5002411;28;20039;-71
2022/11/14 04:20:30;;;;;;;20.55;14.10;;;;;;;;;;5000973;28;20034;-72
2022/11/14 04:23:15;;;;;;;20.90;16.05;;;;;;;;;;5004448;28;20034;-72
2022/11/14 04:26:01;;;;;;;16.95;14.55;;;;;;;;;;5002086;28;21853;-71
2022/11/14 04:28:46;;;;;;;16.17;13.20;;;;;;;;;;5006505;28;20041;-72
2022/11/14 04:31:30;;;;;;;20.48;14.55;;;;;;;;;;5008317;28;20038;-72
2022/11/14 04:34:17;;;;;;;20.25;15.55;;;;;;;;;;5005951;28;20033;-72
2022/11/14 04:37:03;;;;;;;19.70;15.40;;;;;;;;;;5006641;28;20025;-72
2022/11/14 04:39:48;;;;;;;22.77;16.67;;;;;;;;;;5008598;28;20495;-72
2022/11/14 04:42:35;;;;;;;18.98;14.50;;;;;;;;;;4999509;28;20027;-72
2022/11/14 04:45:24;;;;;;;20.58;17.20;;;;;;;;;;5006460;28;20027;-72
2022/11/14 04:48:08;;;;;;;16.77;14.13;;;;;;;;;;5006759;28;20029;-73
2022/11/14 04:50:57;;;;;;;18.92;15.70;;;;;;;;;;5008128;28;20038;-72
2022/11/14 04:53:44;;;;;;;22.83;15.80;;;;;;;;;;5006577;28;20029;-72
2022/11/14 04:56:28;;;;;;;22.35;16.33;;;;;;;;;;4988992;28;20037;-72
2022/11/14 04:59:15;;;;;;;19.63;16.13;;;;;;;;;;5002432;28;20034;-72
2022/11/14 05:02:02;;;;;;;21.77;15.48;;;;;;;;;;5002482;28;20038;-72
2022/11/14 05:04:51;;;;;;;20.83;15.82;;;;;;;;;;5008866;28;20034;-72
2022/11/14 05:07:38;;;;;;;22.08;15.30;;;;;;;;;;5004061;28;20038;-72
2022/11/14 05:10:23;;;;;;;19.85;14.48;;;;;;;;;;5004568;28;20030;-72
2022/11/14 05:13:10;;;;;;;16.48;14.75;;;;;;;;;;4992442;28;20045;-72
2022/11/14 05:15:57;;;;;;;18.45;13.82;;;;;;;;;;4992597;28;20408;-72
2022/11/14 05:18:41;;;;;;;16.67;12.52;;;;;;;;;;5002273;28;20388;-72
2022/11/14 05:21:28;;;;;;;18.45;14.02;;;;;;;;;;4992383;28;20114;-72
2022/11/14 05:24:12;;;;;;;18.33;14.40;;;;;;;;;;5006990;28;20033;-72
2022/11/14 05:26:57;;;;;;;20.58;15.10;;;;;;;;;;5007638;28;20041;-72
2022/11/14 05:29:44;;;;;;;13.90;12.18;;;;;;;;;;5003016;28;20038;-72
2022/11/14 05:32:29;;;;;;;25.27;17.27;;;;;;;;;;5005713;28;20039;-72
2022/11/14 05:35:14;;;;;;;15.13;12.27;;;;;;;;;;5008474;28;20037;-73
2022/11/14 05:38:00;;;;;;;;;;;;;;;;;;4993380;28;20038;-72
2022/11/14 05:40:45;;;;;;;18.00;13.18;;;;;;;;;;4995939;28;19925;-72
2022/11/14 05:43:34;;;;;;;15.25;13.25;;;;;;;;;;5003160;28;20436;-72
2022/11/14 05:46:19;;;;;;;20.85;13.15;;;;;;;;;;4980381;28;20052;-72
2022/11/14 05:49:06;;;;;;;33.17;14.10;;;;;;;;;;4996454;28;20034;-73
2022/11/14 05:51:50;;;;;;;18.38;13.52;;;;;;;;;;4995790;28;20033;-73
2022/11/14 05:54:37;;;;;;;19.88;15.30;;;;;;;;;;5000390;28;20034;-73
2022/11/14 05:57:21;;;;;;;20.17;14.60;;;;;;;;;;4994735;28;20389;-72
2022/11/14 06:00:06;;;;;;;15.85;12.23;;;;;;;;;;4980293;28;20042;-73
2022/11/14 06:02:51;;;;;;;17.20;14.18;;;;;;;;;;4994706;28;20380;-73
2022/11/14 06:05:36;;;;;;;20.65;16.95;;;;;;;;;;4996000;28;20524;-72
2022/11/14 06:08:20;;;;;;;22.20;17.40;;;;;;;;;;4995023;28;20056;-72
2022/11/14 06:11:06;;;;;;;15.02;13.40;;;;;;;;;;4996029;28;20029;-72
2022/11/14 06:13:51;;;;;;;16.02;12.93;;;;;;;;;;4995524;28;20048;-72
2022/11/14 06:16:35;;;;;;;16.48;13.70;;;;;;;;;;4997417;28;20038;-72
2022/11/14 06:19:20;;;;;;;22.15;14.43;;;;;;;;;;4994919;28;20034;-72
2022/11/14 06:22:10;;;;;;;17.58;15.85;;;;;;;;;;4997036;28;20395;-72
2022/11/14 06:24:54;;;;;;;18.55;15.35;;;;;;;;;;4991051;28;20049;-72
2022/11/14 06:27:46;;;;;;;18.27;13.50;;;;;;;;;;5006039;28;20038;-73
2022/11/14 06:30:30;;;;;;;20.17;14.13;;;;;;;;;;4996565;28;20041;-73
2022/11/14 06:33:15;;;;;;;18.63;15.40;;;;;;;;;;5003806;28;20042;-73
2022/11/14 06:36:03;;;;;;;16.25;13.82;;;;;;;;;;5001569;28;20025;-73
2022/11/14 06:38:49;;;;;;;19.77;13.73;;;;;;;;;;5006004;28;20033;-73
2022/11/14 06:41:34;;;;;;;20.40;15.43;;;;;;;;;;5009025;28;20033;-73
2022/11/14 06:44:21;;;;;;;23.58;16.90;;;;;;;;;;5003687;28;20026;-73
2022/11/14 06:47:07;;;;;;;20.23;16.25;;;;;;;;;;5010219;28;20097;-73
2022/11/14 06:53:05;;;;;;;19.85;14.73;;;;;;;;;;4949336;28;20055;-80
2022/11/14 06:55:49;;;;;;;;;;;;;;;;;;4934989;29;20490;-80
2022/11/14 06:58:34;;;;;;;18.80;14.93;;;;;;;;;;4948781;28;19918;-81
2022/11/14 07:01:20;;;;;;;17.70;13.45;;;;;;;;;;4946885;28;20401;-80
2022/11/14 07:04:04;;;;;;;18.30;13.32;;;;;;;;;;4946492;28;20027;-80
2022/11/14 07:06:51;;;;;;;18.15;14.77;;;;;;;;;;4950615;28;20039;-81
2022/11/14 07:09:36;;;;;;;20.63;14.77;;;;;;;;;;4952053;28;20035;-80
2022/11/14 07:12:22;;;;;;;18.35;14.90;;;;;;;;;;4951068;28;20042;-80
2022/11/14 07:15:10;;;;;;;16.88;15.07;;;;;;;;;;4933652;28;20039;-80
2022/11/14 07:17:59;;;;;;;15.82;13.15;;;;;;;;;;4948871;28;20027;-80
2022/11/14 07:20:47;;;;;;;16.67;13.38;;;;;;;;;;4949153;28;20032;-80
2022/11/14 07:23:34;;;;;;;20.52;16.27;;;;;;;;;;4946810;28;20047;-80
2022/11/14 07:26:19;;;;;;;16.95;14.55;;;;;;;;;;4949458;28;20031;-80
2022/11/14 07:29:03;;;;;;;21.80;15.15;;;;;;;;;;4947243;28;20042;-80
2022/11/14 07:31:47;;;;;;;18.92;15.77;;;;;;;;;;4948201;28;20039;-80
2022/11/14 07:34:31;;;;;;;19.38;15.43;;;;;;;;;;4944560;28;20521;-80
2022/11/14 07:37:16;;;;;;;20.85;16.48;;;;;;;;;;4953247;28;20031;-80
2022/11/14 07:40:02;;;;;;;17.67;14.73;;;;;;;;;;4949209;28;20023;-80
2022/11/14 07:42:51;;;;;;;34.83;14.25;;;;;;;;;;4941096;28;20039;-80
2022/11/14 07:45:35;;;;;;;22.98;16.23;;;;;;;;;;4944794;28;20042;-80
2022/11/14 07:48:22;;;;;;;17.70;14.80;;;;;;;;;;4943649;28;20039;-80
2022/11/14 07:51:08;;;;;;;16.52;14.60;;;;;;;;;;4941410;28;20035;-80
2022/11/14 07:53:55;;;;;;;32.60;19.73;;;;;;;;;;4948075;28;20031;-80
2022/11/14 07:56:42;;;;;;;25.55;21.52;;;;;;;;;;4947380;28;20042;-81
2022/11/14 07:59:26;;;;;;;24.92;17.42;;;;;;;;;;4941466;28;20027;-81
2022/11/14 08:02:14;;;;;;;25.23;17.98;;;;;;;;;;4954551;28;20032;-81
2022/11/14 08:04:58;;;;;;;24.95;20.25;;;;;;;;;;4947593;28;20477;-81
2022/11/14 08:07:42;;;;;;;24.73;19.35;;;;;;;;;;4955271;28;20039;-78
2022/11/14 08:10:29;;;;;;;19.90;14.55;;;;;;;;;;4935008;29;20038;-78
2022/11/14 08:13:14;;;;;;;23.15;15.00;;;;;;;;;;4946079;28;20035;-79
2022/11/14 08:16:01;;;;;;;19.10;15.10;;;;;;;;;;4935574;29;20035;-78
2022/11/14 08:18:50;;;;;;;20.83;15.88;;;;;;;;;;4952611;28;20168;-78
2022/11/14 08:21:35;;;;;;;19.00;17.00;;;;;;;;;;4954061;28;20035;-79
2022/11/14 08:24:21;;;;;;;18.63;15.65;;;;;;;;;;4954629;28;20030;-79
2022/11/14 08:27:08;;;;;;;18.80;13.75;;;;;;;;;;4951397;28;20039;-79
2022/11/14 08:29:55;;;;;;;19.88;12.40;;;;;;;;;;4947469;28;20028;-78
2022/11/14 08:32:39;;;;;;;16.20;13.85;;;;;;;;;;4951547;28;20516;-78
2022/11/14 08:35:26;;;;;;;17.38;14.00;;;;;;;;;;4954150;28;20026;-78
2022/11/14 08:38:10;;;;;;;19.42;16.77;;;;;;;;;;4945310;28;20023;-78
2022/11/14 08:40:58;;;;;;;16.67;13.50;;;;;;;;;;4953000;28;20027;-78
2022/11/14 08:43:45;;;;;;;20.85;14.18;;;;;;;;;;4964751;28;20508;-79
2022/11/14 08:46:31;;;;;;;18.67;15.23;;;;;;;;;;4952125;28;20031;-79
2022/11/14 08:49:16;;;;;;;15.77;13.23;;;;;;;;;;4943464;28;20493;-78
2022/11/14 08:52:03;;;;;;;21.20;13.98;;;;;;;;;;4957887;28;20038;-79
2022/11/14 08:54:49;;;;;;;14.98;12.10;;;;;;;;;;4952259;28;20031;-81
2022/11/14 08:57:39;;;;;;;17.88;14.80;;;;;;;;;;4950315;28;20489;-81
2022/11/14 09:00:28;;;;;;;21.27;12.10;;;;;;;;;;4960574;28;20027;-81
2022/11/14 09:03:15;;;;;;;22.15;16.85;;;;;;;;;;4957649;28;20398;-81
2022/11/14 09:06:05;;;;;;;15.75;13.13;;;;;;;;;;4951951;28;20039;-81
2022/11/14 09:08:52;;;;;;;17.08;13.55;;;;;;;;;;4950523;28;20030;-82
2022/11/14 09:11:39;;;;;;;22.92;13.48;;;;;;;;;;4948977;28;20042;-82
2022/11/14 09:14:23;;;;;;;18.25;14.20;;;;;;;;;;4957269;28;20035;-82
2022/11/14 09:17:08;;;;;;;16.08;12.88;;;;;;;;;;4952873;28;20421;-82
2022/11/14 09:19:53;;;;;;;14.18;12.02;;;;;;;;;;4947175;28;20035;-82
2022/11/14 09:22:39;;;;;;;15.43;11.57;;;;;;;;;;4937246;28;20042;-82
2022/11/14 09:25:26;;;;;;;16.60;13.50;;;;;;;;;;4959677;28;20039;-82
2022/11/14 09:28:13;;;;;;;17.42;13.15;;;;;;;;;;4947352;28;20502;-82
2022/11/14 09:31:03;;;;;;;16.70;13.48;;;;;;;;;;4966928;28;20031;-82
2022/11/14 09:33:48;;;;;;;13.65;11.93;;;;;;;;;;4952448;28;20039;-82
2022/11/14 09:36:32;;;;;;;13.05;11.35;;;;;;;;;;4948404;28;20035;-82
2022/11/14 09:39:21;;;;;;;14.27;10.48;;;;;;;;;;4954197;28;20027;-82
2022/11/14 09:42:15;;;;;;;12.43;11.00;;;;;;;;;;4953117;28;20386;-82
2022/11/14 09:45:03;;;;;;;14.85;11.32;;;;;;;;;;4950245;28;20031;-82
2022/11/14 09:47:51;;;;;;;16.13;10.00;;;;;;;;;;4956793;28;20031;-82
2022/11/14 09:50:38;;;;;;;12.45;10.75;;;;;;;;;;4959432;28;20019;-81
2022/11/14 09:53:32;;;;;;;12.70;10.68;;;;;;;;;;4966216;28;20030;-82
2022/11/14 09:56:23;;;;;;;13.07;10.32;;;;;;;;;;4951882;28;20038;-82
2022/11/14 09:59:08;;;;;;;11.73;9.57;;;;;;;;;;4949072;28;20027;-82
2022/11/14 10:02:24;;;;;;;12.82;9.93;;;;;;;;;;4961152;28;20037;-82
2022/11/14 10:05:11;;;;;;;10.63;9.30;;;;;;;;;;4927242;28;20042;-82
2022/11/14 10:08:14;;;;;;;16.15;8.75;;;;;;;;;;4949193;28;20034;-82
2022/11/14 10:11:05;;;;;;;12.80;9.88;;;;;;;;;;4955114;28;20367;-82
2022/11/14 10:13:59;;;;;;;18.67;10.82;;;;;;;;;;4951161;28;20362;-81
2022/11/14 10:16:49;;;;;;;16.13;8.25;;;;;;;;;;4952689;28;20054;-81
2022/11/14 10:19:43;;;;;;;14.50;10.55;;;;;;;;;;4950161;28;20036;-81
2022/11/14 10:22:36;;;;;;;11.77;9.18;;;;;;;;;;4936934;28;20481;-82
2022/11/14 10:25:26;;;;;;;13.45;8.55;;;;;;;;;;4947660;28;20042;-82
2022/11/14 10:28:28;;;;;;;19.70;9.30;;;;;;;;;;4949165;28;20042;-82
2022/11/14 10:31:13;;;;;;;12.15;8.75;;;;;;;;;;4955686;28;20038;-83
2022/11/14 10:34:04;;;;;;;14.43;10.82;;;;;;;;;;4956032;28;20512;-82
2022/11/14 10:36:55;;;;;;;11.27;9.23;;;;;;;;;;4946070;28;20035;-81
2022/11/14 10:39:43;;;;;;;15.65;11.07;;;;;;;;;;4946875;28;20038;-82
2022/11/14 10:42:35;;;;;;;14.75;11.70;;;;;;;;;;4951131;28;20038;-82
2022/11/14 10:45:22;;;;;;;10.85;9.23;;;;;;;;;;4946078;28;20038;-82
2022/11/14 10:48:11;;;;;;;13.05;10.55;;;;;;;;;;4944572;28;20618;-81
2022/11/14 10:51:00;;;;;;;13.05;9.00;;;;;;;;;;4950137;28;20035;-81
2022/11/14 10:53:51;;;;;;;11.75;9.63;;;;;;;;;;4949966;28;20043;-82
2022/11/14 10:56:49;;;;;;;12.35;8.88;;;;;;;;;;4947632;28;20035;-82
2022/11/14 10:59:33;;;;;;;10.35;8.63;;;;;;;;;;4955351;28;20039;-82
2022/11/14 11:02:17;;;;;;;13.82;8.82;;;;;;;;;;4939596;29;20030;-82
2022/11/14 11:05:12;;;;;;;14.60;9.10;;;;;;;;;;4970784;28;20027;-82
2022/11/14 11:14:14;;;;;;;8.80;7.90;;;;;;;;;;4955051;28;20051;-82
2022/11/14 11:17:13;;;;;;;10.50;9.43;;;;;;;;;;4954461;28;20041;-82
2022/11/14 11:20:18;;;;;;;8.57;6.22;;;;;;;;;;4959044;28;20111;-82
2022/11/14 11:23:08;;;;;;;9.63;6.93;;;;;;;;;;4940791;28;20035;-83
2022/11/14 11:26:04;;;;;;;7.50;6.40;;;;;;;;;;4948522;28;20035;-82
2022/11/14 11:29:00;;;;;;;6.47;5.85;;;;;;;;;;4949590;28;20370;-80
2022/11/14 11:31:48;;;;;;;8.18;7.38;;;;;;;;;;4944483;28;20038;-81
2022/11/14 11:34:35;;;;;;;8.38;7.55;;;;;;;;;;4936781;28;20051;-80
2022/11/14 11:37:25;;;;;;;9.65;6.80;;;;;;;;;;4920785;28;20039;-81
2022/11/14 11:40:14;;;;;;;8.20;6.55;;;;;;;;;;4936641;28;20031;-80
2022/11/14 11:43:05;;;;;;;7.75;5.55;;;;;;;;;;4938051;28;20043;-80
2022/11/14 11:45:53;;;;;;;6.78;5.93;;;;;;;;;;4942087;28;20397;-80
2022/11/14 11:48:40;;;;;;;6.25;4.90;;;;;;;;;;4935800;28;20046;-80
2022/11/14 11:51:27;;;;;;;7.47;5.07;;;;;;;;;;4928625;28;20054;-80
2022/11/14 11:54:23;;;;;;;8.50;5.65;;;;;;;;;;4941545;28;20036;-80
2022/11/14 11:57:12;;;;;;;8.52;7.00;;;;;;;;;;4950626;28;20486;-80
2022/11/14 12:00:04;;;;;;;10.75;6.68;;;;;;;;;;4949354;28;20505;-80
2022/11/14 12:02:51;;;;;;;;;;;;;;;;;;4954981;28;20032;-79
2022/11/14 12:05:35;;;;;;;9.57;6.00;;;;;;;;;;4954406;28;19910;-79
2022/11/14 12:08:31;;;;;;;10.52;6.30;;;;;;;;;;4958246;28;20042;-79
2022/11/14 12:11:20;;;;;;;8.30;5.80;;;;;;;;;;4951264;28;20035;-79
2022/11/14 12:14:19;;;;;;;8.90;5.57;;;;;;;;;;4954016;28;20492;-80
2022/11/14 12:17:07;;;;;;;11.77;6.43;;;;;;;;;;4954178;28;20038;-80
2022/11/14 12:20:10;;;;;;;6.72;5.85;;;;;;;;;;4953300;28;20034;-79
2022/11/14 12:23:06;;;;;;;7.68;5.25;;;;;;;;;;4952017;28;20504;-80
2022/11/14 12:25:53;;;;;;;5.63;4.47;;;;;;;;;;4956168;28;20031;-79
2022/11/14 12:28:52;;;;;;;10.15;5.90;;;;;;;;;;4947998;28;20035;-79
2022/11/14 12:31:40;;;;;;;8.35;5.78;;;;;;;;;;4940399;28;20493;-78
2022/11/14 12:34:32;;;;;;;6.53;5.95;;;;;;;;;;4960666;28;20039;-78
2022/11/14 12:37:21;;;;;;;6.50;5.22;;;;;;;;;;4953850;28;20043;-79
2022/11/14 12:40:07;;;;;;;6.88;5.22;;;;;;;;;;4932471;28;20039;-79
2022/11/14 12:42:52;;;;;;;6.03;4.90;;;;;;;;;;4952363;28;20039;-80
2022/11/14 12:45:39;;;;;;;8.02;6.38;;;;;;;;;;4962197;28;20042;-79
2022/11/14 12:48:26;;;;;;;6.15;5.55;;;;;;;;;;4966602;28;20397;-79
2022/11/14 12:51:22;;;;;;;6.72;4.63;;;;;;;;;;4996080;22;20045;-74
2022/11/14 12:54:27;;;;;;;7.88;5.53;;;;;;;;;;5029160;28;20040;-74
2022/11/14 12:57:46;;;;;;;;;;;;;;;;;;5026113;28;20395;-74
2022/11/14 13:00:19;;;;;;;6.38;4.55;;;;;;;;;;5028016;28;19976;-75
2022/11/14 13:03:13;;;;;;;7.78;5.75;;;;;;;;;;5036261;28;20037;-74
2022/11/14 13:06:09;;;;;;;7.43;5.50;;;;;;;;;;5026513;28;20391;-74
2022/11/14 13:09:28;;;;;;;7.90;6.03;;;;;;;;;;5014724;28;20200;-73
2022/11/14 13:22:10;;;;;;;9.05;6.90;;;;;;;;;;5021617;28;20037;-74
2022/11/14 13:24:56;;;;;;;7.30;5.00;;;;;;;;;;5025800;28;20033;-74
2022/11/14 13:27:41;;;;;;;4.30;3.90;;;;;;;;;;5027462;28;20029;-75
2022/11/14 13:30:44;;;;;;;10.40;5.20;;;;;;;;;;5029230;28;20033;-75
2022/11/14 13:33:47;;;;;;;6.47;4.60;;;;;;;;;;5027711;28;20033;-76
2022/11/14 13:36:43;;;;;;;6.90;6.00;;;;;;;;;;5036882;28;20030;-75
2022/11/14 13:39:48;;;;;;;5.07;3.90;;;;;;;;;;5027119;28;20037;-74
2022/11/14 13:42:49;;;;;;;6.82;5.78;;;;;;;;;;5029511;28;20029;-74
2022/11/14 13:45:52;;;;;;;5.03;4.45;;;;;;;;;;5027464;28;20052;-75
2022/11/14 13:48:42;;;;;;;6.05;4.45;;;;;;;;;;5026537;28;20021;-74
2022/11/14 13:51:27;;;;;;;6.03;4.13;;;;;;;;;;5025339;28;20037;-75
2022/11/14 13:54:15;;;;;;;6.40;3.95;;;;;;;;;;5027410;28;20030;-74
2022/11/14 13:57:18;;;;;;;6.18;4.88;;;;;;;;;;5008305;28;20025;-75
2022/11/14 14:00:11;;;;;;;5.55;4.75;;;;;;;;;;5025883;28;20056;-74
2022/11/14 14:03:14;;;;;;;4.85;4.43;;;;;;;;;;5020911;28;20426;-75
2022/11/14 14:06:09;;;;;;;4.93;4.18;;;;;;;;;;5023544;28;20036;-75
2022/11/14 14:09:14;;;;;;;6.47;4.43;;;;;;;;;;5041211;28;20034;-74
2022/11/14 14:12:12;;;;;;;6.63;4.15;;;;;;;;;;5039573;28;20487;-74
2022/11/14 14:15:06;;;;;;;14.27;4.10;;;;;;;;;;5029213;28;20471;-74
2022/11/14 14:18:04;;;;;;;5.60;4.65;;;;;;;;;;5031241;28;20029;-75
2022/11/14 14:21:04;;;;;;;5.80;3.90;;;;;;;;;;5024388;28;20029;-75
2022/11/14 14:23:58;;;;;;;4.75;4.32;;;;;;;;;;5029009;28;20033;-75
2022/11/14 14:26:45;;;;;;;4.05;3.45;;;;;;;;;;5025828;28;20029;-74
2022/11/14 14:29:42;;;;;;;9.07;3.72;;;;;;;;;;5028000;28;20037;-74
2022/11/14 14:32:26;;;;;;;4.82;3.80;;;;;;;;;;5021111;28;20030;-74
2022/11/14 14:35:20;;;;;;;6.43;3.95;;;;;;;;;;5030695;28;20033;-74
2022/11/14 14:38:09;;;;;;;5.43;3.35;;;;;;;;;;5015338;28;20041;-76
2022/11/14 14:40:56;;;;;;;12.27;7.80;;;;;;;;;;5027057;28;20105;-76
2022/11/14 14:43:44;;;;;;;9.80;5.88;;;;;;;;;;5025589;28;20492;-76
2022/11/14 14:46:30;;;;;;;6.43;5.07;;;;;;;;;;5026317;28;20026;-76
2022/11/14 14:49:25;;;;;;;6.57;5.13;;;;;;;;;;5026951;28;20467;-76
2022/11/14 14:52:28;;;;;;;4.95;4.38;;;;;;;;;;5031082;28;20033;-76
2022/11/14 14:55:20;;;;;;;6.15;4.15;;;;;;;;;;5013844;28;20033;-76
2022/11/14 14:58:20;;;;;;;4.38;3.97;;;;;;;;;;5017475;28;20041;-75
2022/11/14 15:01:10;;;;;;;4.07;3.58;;;;;;;;;;5027325;28;20188;-74
2022/11/14 15:03:57;;;;;;;9.27;4.57;;;;;;;;;;5026793;28;20029;-75
2022/11/14 15:06:43;;;;;;;4.90;4.15;;;;;;;;;;5010512;28;20033;-75
2022/11/14 15:09:33;;;;;;;5.75;4.50;;;;;;;;;;5023849;28;20033;-75
2022/11/14 15:12:24;;;;;;;6.30;5.55;;;;;;;;;;5023095;28;20053;-75
2022/11/14 15:15:12;;;;;;;7.07;4.40;;;;;;;;;;5019604;28;20029;-75
2022/11/14 15:17:58;;;;;;;7.35;5.43;;;;;;;;;;5024732;28;20088;-76
2022/11/14 15:20:45;;;;;;;6.57;5.85;;;;;;;;;;5023696;28;20037;-75
2022/11/14 15:23:30;;;;;;;5.15;4.65;;;;;;;;;;5021213;28;20403;-75
2022/11/14 15:26:17;;;;;;;8.93;5.82;;;;;;;;;;5016366;28;20044;-75
2022/11/14 15:29:05;;;;;;;136.88;101.55;;;;;;;;;;5028384;28;20029;-75
2022/11/14 15:31:57;;;;;;;21.92;14.98;;;;;;;;;;5038516;28;20053;-75
2022/11/14 15:34:42;;;;;;;10.13;9.10;;;;;;;;;;5032077;28;20038;-75
2022/11/14 15:37:27;;;;;;;6.43;5.13;;;;;;;;;;5031826;28;20391;-76
2022/11/14 15:40:20;;;;;;;6.90;6.20;;;;;;;;;;5032809;28;20026;-76
2022/11/14 15:43:24;;;;;;;8.18;6.63;;;;;;;;;;5032885;28;20033;-74
2022/11/14 15:46:27;;;;;;;6.43;5.68;;;;;;;;;;5024788;28;20037;-75
2022/11/14 15:49:11;;;;;;;6.43;5.82;;;;;;;;;;5032242;28;20041;-75
2022/11/14 15:51:57;;;;;;;8.45;6.75;;;;;;;;;;5032487;28;20037;-75
2022/11/14 15:54:44;;;;;;;11.57;7.70;;;;;;;;;;5025967;28;20071;-75
2022/11/14 15:57:31;;;;;;;8.05;5.22;;;;;;;;;;5024749;28;20033;-76
2022/11/14 16:00:18;;;;;;;9.85;7.40;;;;;;;;;;5028532;28;20030;-74
2022/11/14 16:03:09;;;;;;;6.40;5.80;;;;;;;;;;5024648;28;20033;-75
2022/11/14 16:05:53;;;;;;;8.63;5.45;;;;;;;;;;5028688;28;20491;-75
2022/11/14 16:08:38;;;;;;;14.20;10.30;;;;;;;;;;5009101;28;20038;-75
2022/11/14 16:11:22;;;;;;;15.30;8.25;;;;;;;;;;5029686;28;20026;-75
2022/11/14 16:14:09;;;;;;;7.80;6.72;;;;;;;;;;5031292;28;20033;-76
2022/11/14 16:16:55;;;;;;;7.68;6.20;;;;;;;;;;5033565;28;20029;-76
2022/11/14 16:19:40;;;;;;;9.70;7.35;;;;;;;;;;5030921;28;20025;-75
2022/11/14 16:22:29;;;;;;;9.48;7.97;;;;;;;;;;5028575;28;20028;-76
2022/11/14 16:25:20;;;;;;;10.95;7.38;;;;;;;;;;5030696;28;20038;-76
2022/11/14 16:28:06;;;;;;;15.65;9.23;;;;;;;;;;5029150;28;20033;-76
2022/11/14 16:30:51;;;;;;;8.50;6.20;;;;;;;;;;5026051;28;20049;-76
2022/11/14 16:33:35;;;;;;;8.73;7.85;;;;;;;;;;5031211;28;20029;-76
2022/11/14 16:36:20;;;;;;;11.77;9.55;;;;;;;;;;5021258;28;20029;-76
2022/11/14 16:39:10;;;;;;;13.15;9.02;;;;;;;;;;5029604;28;20036;-76
2022/11/14 16:42:02;;;;;;;9.93;8.90;;;;;;;;;;5023255;28;20104;-76
2022/11/14 16:44:51;;;;;;;19.77;8.45;;;;;;;;;;5028210;28;20376;-76
2022/11/14 16:47:36;;;;;;;7.32;6.60;;;;;;;;;;5030102;28;20037;-75
2022/11/14 16:50:23;;;;;;;14.07;8.95;;;;;;;;;;5031666;28;20040;-75